RJAA METAR and TAF | Updated Today

RJAA METAR

Narita International Airport

Observation time: 30 min. ago

RJAA 010730Z 02011KT 9999 FEW025 24/19 Q1016 NOSIG RMK 1CU025 A3002

Need help? Read our tutorial on how to read METARs or read the parsed version below.

Narita International Airport (RJAA) METAR

  • Weather conditions on Sat, 01 Oct 2022 07:30:00 +0000 (30 min. ago):
  • Present conditions: Dry
  • Clouds: A few at 762 meters
  • Visibility: Greater than 10 km
  • Wind: 20 degrees at 11 knots
  • Temperature: 24 celsius
  • Dew point: 19 celsius
  • Pressure: 1016 millibars
  • Remarks: 1CU025 A3002


Useful to know...

RJAA TAF

Narita International Airport

TAF RJAA 010505Z 0106/0212 03010KT 9999 FEW030 TEMPO 0118/0121 4000 BR
Observation time: 2:55 hr. ago
Need help? Read our tutorial on how to read TAFs or read the parsed version below.

Parsed version of TAF for Narita International Airport (RJAA)

  • From 01 October at 06:00 UTC, to day 02 of the month at 12:00 UTC
  • Clouds: A few at 914 meters
  • Visibility: Greater than 10 km
  • Wind: 30 degrees at 10
  • Expected to arise temporarily, from 01 October at 18:00 UTC, to day 01 of the month at 21:00 UTC
  • Visibility: 4000 meters
  • Other: Mist